createdAt,value
2018-02-04T00:02:26.098Z,90.90
2018-02-04T00:04:53.618Z,90.80
2018-02-04T00:07:21.937Z,91.00
2018-02-04T00:09:49.470Z,90.90
2018-02-04T00:12:17.018Z,90.90
2018-02-04T00:14:45.307Z,90.80
2018-02-04T00:17:12.851Z,90.80
2018-02-04T00:19:40.385Z,91.10
2018-02-04T00:22:08.046Z,91.30
2018-02-04T00:24:35.614Z,91.40
2018-02-04T00:27:03.372Z,91.60
2018-02-04T00:29:31.787Z,92.30
2018-02-04T00:31:59.344Z,92.10
2018-02-04T00:34:26.880Z,92.10
2018-02-04T00:36:55.457Z,92.10
2018-02-04T00:39:23.876Z,91.90
2018-02-04T00:41:51.414Z,92.00
2018-02-04T00:44:19.735Z,92.00
2018-02-04T00:46:47.301Z,92.00
2018-02-04T00:49:14.859Z,92.00
2018-02-04T00:51:43.151Z,92.00
2018-02-04T00:54:11.466Z,92.10
2018-02-04T00:56:39.004Z,92.10
2018-02-04T00:59:07.341Z,91.90
2018-02-04T01:01:34.897Z,91.80
2018-02-04T01:04:02.448Z,91.90
2018-02-04T01:06:29.999Z,91.80
2018-02-04T01:08:58.377Z,91.90
2018-02-04T01:11:25.936Z,91.90
2018-02-04T01:13:53.517Z,92.10
2018-02-04T01:16:21.057Z,92.00
2018-02-04T01:18:48.722Z,92.10
2018-02-04T01:21:16.293Z,92.10
2018-02-04T01:23:43.899Z,92.00
2018-02-04T01:26:11.430Z,91.80
2018-02-04T01:28:39.007Z,92.00
2018-02-04T01:31:06.583Z,91.90
2018-02-04T01:33:34.299Z,91.90
2018-02-04T01:36:01.863Z,92.10
2018-02-04T01:38:29.450Z,91.80
2018-02-04T01:40:57.063Z,91.60
2018-02-04T01:43:24.591Z,91.70
2018-02-04T01:45:52.155Z,91.60
2018-02-04T01:48:19.793Z,91.80
2018-02-04T01:50:47.440Z,91.80
2018-02-04T01:53:15.847Z,92.50
2018-02-04T01:55:43.483Z,92.20
2018-02-04T01:58:11.044Z,92.30
2018-02-04T02:00:38.755Z,92.10
2018-02-04T02:03:07.141Z,92.10
2018-02-04T02:05:35.479Z,92.20
2018-02-04T02:08:03.089Z,92.20
2018-02-04T02:10:30.670Z,92.30
2018-02-04T02:12:59.194Z,92.50
2018-02-04T02:15:27.695Z,92.60
2018-02-04T02:17:55.420Z,92.60
2018-02-04T02:20:23.016Z,92.50
2018-02-04T02:22:51.352Z,92.30
2018-02-04T02:25:18.921Z,92.20
2018-02-04T02:27:46.571Z,91.80
2018-02-04T02:30:14.135Z,91.80
2018-02-04T02:32:41.742Z,91.70
2018-02-04T02:35:09.330Z,91.90
2018-02-04T02:37:37.719Z,91.80
2018-02-04T02:40:05.346Z,91.90
2018-02-04T02:42:33.656Z,91.80
2018-02-04T02:45:01.247Z,91.80
2018-02-04T02:47:28.862Z,91.60
2018-02-04T02:49:56.495Z,91.80
2018-02-04T02:52:24.143Z,91.80
2018-02-04T02:54:51.707Z,91.80
2018-02-04T02:57:20.155Z,92.00
2018-02-04T02:59:47.747Z,92.00
2018-02-04T03:02:15.418Z,91.90
2018-02-04T03:04:43.089Z,92.10
2018-02-04T03:07:10.730Z,92.00
2018-02-04T03:09:38.483Z,92.20
2018-02-04T03:12:06.129Z,92.10
2018-02-04T03:14:36.016Z,92.40
2018-02-04T03:17:04.160Z,92.40
2018-02-04T03:19:31.938Z,92.50
2018-02-04T03:21:59.896Z,92.50
2018-02-04T03:24:28.474Z,92.80
2018-02-04T03:26:56.167Z,92.80
2018-02-04T03:29:24.621Z,93.30
2018-02-04T03:31:53.433Z,93.30
2018-02-04T03:34:21.153Z,93.30
2018-02-04T03:36:48.923Z,93.30
2018-02-04T03:39:18.431Z,93.30
2018-02-04T03:41:47.078Z,93.30
2018-02-04T03:44:14.843Z,93.30
2018-02-04T03:46:42.659Z,93.30
2018-02-04T03:49:10.693Z,93.50
2018-02-04T03:51:38.460Z,93.40
2018-02-04T03:54:07.993Z,93.40
2018-02-04T03:56:35.779Z,93.40
2018-02-04T03:59:03.461Z,93.40
2018-02-04T04:01:31.227Z,93.20
2018-02-04T04:03:59.176Z,93.00
2018-02-04T04:06:26.912Z,92.90
2018-02-04T04:08:54.668Z,92.70
2018-02-04T04:11:22.496Z,92.70
2018-02-04T04:13:50.323Z,92.70
2018-02-04T04:16:18.313Z,92.80
2018-02-04T04:18:46.200Z,92.70
2018-02-04T04:21:14.190Z,92.90
2018-02-04T04:26:26.082Z,92.70
2018-02-04T04:28:54.209Z,92.80
2018-02-04T04:31:22.993Z,93.00
2018-02-04T04:33:51.137Z,92.90
2018-02-04T04:36:20.704Z,93.30
2018-02-04T04:38:48.558Z,93.30
2018-02-04T04:41:16.302Z,93.30
2018-02-04T04:43:44.297Z,93.30
2018-02-04T04:46:12.919Z,93.30
2018-02-04T04:48:41.666Z,93.30
2018-02-04T04:51:09.464Z,93.30
2018-02-04T04:53:37.197Z,93.30
2018-02-04T04:56:04.885Z,93.30
2018-02-04T04:58:33.562Z,93.30
2018-02-04T05:01:01.189Z,93.30
2018-02-04T05:03:28.911Z,93.30
2018-02-04T05:05:56.509Z,93.30
2018-02-04T05:08:24.063Z,93.30
2018-02-04T05:10:53.633Z,93.30
2018-02-04T05:13:22.985Z,93.30
2018-02-04T05:15:51.478Z,93.10
2018-02-04T05:18:19.175Z,92.90
2018-02-04T05:20:47.966Z,92.90
2018-02-04T05:23:19.402Z,92.30
2018-02-04T05:25:46.983Z,92.30
2018-02-04T05:28:15.322Z,92.30
2018-02-04T05:30:44.713Z,92.30
2018-02-04T05:33:12.909Z,92.20
2018-02-04T05:35:40.424Z,92.10
2018-02-04T05:38:07.966Z,92.00
2018-02-04T05:40:35.489Z,91.80
2018-02-04T05:43:03.791Z,91.80
2018-02-04T05:45:31.547Z,91.80
2018-02-04T05:48:00.014Z,91.80
2018-02-04T05:50:27.605Z,91.60
2018-02-04T05:52:55.168Z,91.40
2018-02-04T05:55:23.022Z,91.50
2018-02-04T05:57:50.991Z,91.10
2018-02-04T06:00:24.182Z,91.20
2018-02-04T06:02:51.789Z,91.20
2018-02-04T06:05:19.530Z,91.20
2018-02-04T06:07:47.919Z,91.30
2018-02-04T06:10:15.465Z,91.20
2018-02-04T06:12:43.905Z,91.20
2018-02-04T06:15:12.553Z,91.20
2018-02-04T06:17:41.388Z,91.10
2018-02-04T06:20:11.161Z,91.10
2018-02-04T06:22:39.568Z,91.10
2018-02-04T06:25:10.213Z,91.40
2018-02-04T06:27:39.046Z,91.40
2018-02-04T06:30:13.202Z,91.50
2018-02-04T06:32:41.753Z,91.70
2018-02-04T06:35:10.166Z,92.50
2018-02-04T06:37:38.034Z,92.10
2018-02-04T06:40:05.642Z,92.40
2018-02-04T06:42:33.782Z,92.50
2018-02-04T06:45:01.459Z,92.60
2018-02-04T06:47:29.877Z,92.20
2018-02-04T06:49:58.387Z,92.20
2018-02-04T06:52:26.626Z,91.90
2018-02-04T06:54:56.189Z,91.80
2018-02-04T06:57:26.009Z,91.80
2018-02-04T06:59:55.142Z,91.80
2018-02-04T07:02:23.893Z,91.70
2018-02-04T07:04:52.195Z,91.70
2018-02-04T07:07:20.138Z,91.70
2018-02-04T07:09:51.660Z,91.50
2018-02-04T07:12:19.306Z,91.60
2018-02-04T07:14:47.024Z,91.70
2018-02-04T07:17:14.569Z,91.70
2018-02-04T07:19:42.152Z,91.70
2018-02-04T07:22:09.716Z,91.60
2018-02-04T07:24:37.348Z,91.50
2018-02-04T07:27:04.893Z,91.40
2018-02-04T07:29:33.236Z,91.10
2018-02-04T07:32:00.787Z,91.10
2018-02-04T07:34:29.136Z,90.80
2018-02-04T07:36:58.638Z,90.80
2018-02-04T07:42:03.998Z,90.70
2018-02-04T07:44:32.220Z,91.00
2018-02-04T07:47:00.756Z,90.30
2018-02-04T07:49:28.582Z,90.30
2018-02-04T07:51:57.391Z,90.40
2018-02-04T07:54:24.952Z,90.50
2018-02-04T07:56:52.511Z,90.60
2018-02-04T07:59:22.098Z,90.30
2018-02-04T08:01:49.791Z,90.30
2018-02-04T08:04:18.117Z,90.40
2018-02-04T08:06:45.726Z,90.30
2018-02-04T08:09:13.265Z,89.90
2018-02-04T08:11:40.812Z,90.10
2018-02-04T08:14:09.141Z,89.50
2018-02-04T08:16:36.701Z,89.50
2018-02-04T08:19:04.296Z,89.60
2018-02-04T08:21:31.837Z,89.40
2018-02-04T08:24:00.353Z,89.20
2018-02-04T08:26:27.896Z,89.60
2018-02-04T08:28:56.053Z,89.10
2018-02-04T08:31:27.037Z,89.20
2018-02-04T08:33:55.037Z,88.60
2018-02-04T08:36:23.207Z,88.30
2018-02-04T08:38:50.745Z,88.60
2018-02-04T08:41:18.366Z,87.90
2018-02-04T08:43:45.927Z,88.00
2018-02-04T08:46:13.509Z,88.00
2018-02-04T08:48:42.575Z,87.60
2018-02-04T08:51:10.880Z,87.00
2018-02-04T08:53:39.196Z,87.00
2018-02-04T08:56:06.740Z,87.00
2018-02-04T08:58:35.054Z,86.20
2018-02-04T09:01:02.568Z,86.20
2018-02-04T09:03:30.113Z,84.90
2018-02-04T09:05:57.640Z,84.60
2018-02-04T09:08:25.950Z,84.40
2018-02-04T09:10:53.475Z,84.40
2018-02-04T09:13:21.017Z,84.50
2018-02-04T09:15:48.550Z,84.60
2018-02-04T09:18:16.861Z,86.00
2018-02-04T09:20:44.386Z,85.90
2018-02-04T09:23:11.932Z,86.70
2018-02-04T09:25:39.451Z,86.50
2018-02-04T09:28:07.753Z,88.00
2018-02-04T09:30:36.042Z,87.00
2018-02-04T09:33:03.621Z,87.00
2018-02-04T09:35:31.156Z,87.80
2018-02-04T09:37:58.692Z,87.90
2018-02-04T09:40:26.217Z,87.90
2018-02-04T09:42:54.533Z,88.20
2018-02-04T09:45:22.063Z,88.80
2018-02-04T09:47:50.414Z,89.00
2018-02-04T09:50:17.936Z,88.80
2018-02-04T09:52:46.247Z,87.90
2018-02-04T09:55:13.767Z,87.80
2018-02-04T09:57:41.314Z,88.10
2018-02-04T10:00:08.852Z,88.90
2018-02-04T10:02:37.161Z,89.00
2018-02-04T10:05:04.703Z,88.40
2018-02-04T10:07:33.013Z,86.60
2018-02-04T10:10:00.547Z,86.60
2018-02-04T10:12:28.084Z,86.40
2018-02-04T10:14:55.620Z,85.70
2018-02-04T10:17:23.153Z,85.00
2018-02-04T10:19:50.699Z,84.60
2018-02-04T10:22:18.261Z,84.10
2018-02-04T10:24:45.812Z,82.40
2018-02-04T10:27:13.328Z,82.70
2018-02-04T10:29:40.860Z,82.60
2018-02-04T10:32:08.386Z,83.40
2018-02-04T10:34:35.921Z,82.40
2018-02-04T10:37:03.453Z,83.50
2018-02-04T10:39:31.767Z,82.40
2018-02-04T10:41:59.301Z,82.30
2018-02-04T10:44:26.869Z,81.70
2018-02-04T10:46:54.396Z,83.20
2018-02-04T10:49:21.932Z,82.60
2018-02-04T10:51:56.012Z,81.40
2018-02-04T10:54:23.544Z,81.30
2018-02-04T10:56:51.076Z,81.30
2018-02-04T10:59:18.656Z,80.10
2018-02-04T11:01:46.956Z,79.40
2018-02-04T11:04:15.263Z,79.70
2018-02-04T11:06:43.560Z,80.20
2018-02-04T11:09:11.113Z,80.00
2018-02-04T11:11:39.392Z,80.30
2018-02-04T11:14:07.701Z,80.80
2018-02-04T11:16:35.216Z,80.80
2018-02-04T11:19:02.762Z,80.50
2018-02-04T11:21:30.304Z,80.70
2018-02-04T11:23:58.612Z,78.90
2018-02-04T11:26:26.128Z,78.80
2018-02-04T11:28:53.914Z,79.50
2018-02-04T11:31:21.548Z,78.50
2018-02-04T11:33:49.899Z,78.30
2018-02-04T11:36:17.658Z,79.00
2018-02-04T11:38:45.255Z,78.20
2018-02-04T11:41:13.562Z,77.60
2018-02-04T11:43:41.093Z,77.50
2018-02-04T11:46:08.642Z,78.90
2018-02-04T11:48:36.964Z,80.20
2018-02-04T11:51:05.476Z,80.10
2018-02-04T11:53:33.012Z,80.90
2018-02-04T11:56:00.563Z,79.60
2018-02-04T11:58:29.932Z,79.60
2018-02-04T12:00:58.241Z,80.00
2018-02-04T12:03:25.760Z,80.00
2018-02-04T12:05:53.296Z,81.30
2018-02-04T12:08:20.827Z,81.30
2018-02-04T12:10:48.408Z,81.00
2018-02-04T12:13:16.743Z,81.30
2018-02-04T12:15:44.334Z,81.30
2018-02-04T12:18:11.855Z,81.60
2018-02-04T12:20:39.743Z,81.50
2018-02-04T12:23:07.505Z,81.00
2018-02-04T12:25:35.082Z,80.60
2018-02-04T12:28:04.206Z,80.20
2018-02-04T12:30:31.906Z,80.10
2018-02-04T12:32:59.444Z,80.30
2018-02-04T12:35:27.778Z,79.80
2018-02-04T12:37:55.618Z,81.30
2018-02-04T12:40:23.186Z,81.20
2018-02-04T12:42:51.681Z,82.10
2018-02-04T12:45:21.866Z,82.70
2018-02-04T12:47:50.696Z,82.70
2018-02-04T12:50:20.145Z,86.80
2018-02-04T12:52:48.900Z,86.80
2018-02-04T12:55:17.396Z,88.40
2018-02-04T12:57:46.866Z,89.40
2018-02-04T13:00:14.999Z,90.00
2018-02-04T13:02:43.184Z,89.90
2018-02-04T13:05:11.982Z,90.10
2018-02-04T13:07:41.870Z,90.80
2018-02-04T13:10:10.954Z,90.80
2018-02-04T13:12:39.686Z,90.50
2018-02-04T13:15:07.258Z,90.60
2018-02-04T13:17:34.784Z,90.50
2018-02-04T13:20:03.155Z,90.40
2018-02-04T13:22:30.866Z,89.40
2018-02-04T13:24:58.393Z,89.70
2018-02-04T13:27:25.940Z,90.20
2018-02-04T13:29:53.461Z,89.80
2018-02-04T13:32:21.786Z,89.80
2018-02-04T13:34:49.764Z,89.80
2018-02-04T13:37:17.414Z,89.40
2018-02-04T13:39:45.741Z,90.50
2018-02-04T13:42:13.283Z,90.50
2018-02-04T13:44:41.564Z,90.60
2018-02-04T13:47:09.872Z,91.40
2018-02-04T13:49:37.397Z,91.40
2018-02-04T13:52:04.927Z,91.40
2018-02-04T13:54:32.435Z,91.70
2018-02-04T13:57:00.781Z,92.10
2018-02-04T13:59:28.319Z,92.10
2018-02-04T14:01:56.631Z,92.80
2018-02-04T14:04:24.157Z,92.80
2018-02-04T14:06:51.793Z,92.60
2018-02-04T14:09:19.342Z,92.70
2018-02-04T14:11:47.408Z,92.50
2018-02-04T14:14:14.968Z,92.30
2018-02-04T14:16:42.961Z,92.50
2018-02-04T14:19:12.664Z,92.40
2018-02-04T14:21:40.236Z,92.20
2018-02-04T14:24:09.790Z,92.40
2018-02-04T14:26:38.765Z,92.40
2018-02-04T14:29:07.668Z,92.30
2018-02-04T14:31:35.286Z,92.20
2018-02-04T14:34:04.162Z,92.60
2018-02-04T14:36:32.254Z,92.60
2018-02-04T14:39:00.620Z,93.20
2018-02-04T14:41:28.164Z,93.20
2018-02-04T14:43:55.780Z,93.30
2018-02-04T14:46:23.316Z,93.10
2018-02-04T14:48:50.864Z,93.10
2018-02-04T14:51:18.402Z,92.70
2018-02-04T14:53:46.200Z,92.40
2018-02-04T14:56:14.597Z,92.70
2018-02-04T14:58:42.212Z,92.70
2018-02-04T15:01:09.725Z,93.20
2018-02-04T15:03:37.272Z,93.10
2018-02-04T15:06:04.822Z,92.70
2018-02-04T15:08:32.380Z,93.40
2018-02-04T15:10:59.914Z,93.20
2018-02-04T15:13:28.778Z,93.40
2018-02-04T15:15:56.375Z,93.40
2018-02-04T15:18:23.921Z,93.50
2018-02-04T15:20:51.461Z,93.70
2018-02-04T15:23:18.986Z,93.80
2018-02-04T15:25:46.568Z,93.90
2018-02-04T15:28:14.193Z,94.10
2018-02-04T15:30:42.607Z,94.30
2018-02-04T15:33:10.202Z,94.30
2018-02-04T15:35:39.389Z,93.80
2018-02-04T15:38:07.088Z,93.90
2018-02-04T15:40:34.664Z,94.00
2018-02-04T15:43:02.180Z,94.20
2018-02-04T15:45:30.038Z,94.50
2018-02-04T15:47:57.726Z,94.60
2018-02-04T15:50:25.391Z,95.10
2018-02-04T15:52:52.975Z,95.30
2018-02-04T15:55:20.516Z,94.80
2018-02-04T15:57:48.810Z,95.20
2018-02-04T16:00:16.366Z,95.20
2018-02-04T16:02:43.893Z,95.30
2018-02-04T16:05:12.276Z,95.20
2018-02-04T16:07:40.844Z,95.30
2018-02-04T16:10:09.168Z,95.30
2018-02-04T16:12:36.691Z,95.30
2018-02-04T16:15:05.002Z,95.40
2018-02-04T16:17:32.528Z,95.40
2018-02-04T16:20:00.091Z,95.50
2018-02-04T16:22:27.673Z,95.70
2018-02-04T16:24:55.241Z,96.00
2018-02-04T16:27:22.769Z,96.30
2018-02-04T16:29:50.365Z,96.20
2018-02-04T16:32:17.950Z,96.30
2018-02-04T16:34:45.995Z,96.40
2018-02-04T16:37:13.571Z,96.30
2018-02-04T16:39:41.894Z,96.20
2018-02-04T16:42:09.442Z,96.30
2018-02-04T16:44:36.993Z,95.90
2018-02-04T16:47:05.326Z,96.30
2018-02-04T16:49:32.917Z,96.30
2018-02-04T16:52:00.494Z,96.20
2018-02-04T16:54:28.052Z,96.30
2018-02-04T16:56:55.648Z,96.20
2018-02-04T16:59:23.235Z,96.30
2018-02-04T17:01:51.839Z,96.30
2018-02-04T17:04:19.409Z,96.30
2018-02-04T17:06:47.757Z,96.10
2018-02-04T17:09:15.307Z,96.10
2018-02-04T17:11:42.944Z,96.10
2018-02-04T17:14:10.587Z,96.30
2018-02-04T17:16:38.124Z,96.30
2018-02-04T17:19:05.641Z,96.30
2018-02-04T17:21:33.237Z,96.30
2018-02-04T17:24:01.719Z,96.10
2018-02-04T17:26:30.052Z,96.20
2018-02-04T17:28:57.773Z,96.00
2018-02-04T17:31:25.367Z,96.10
2018-02-04T17:33:52.841Z,95.90
2018-02-04T17:36:20.372Z,96.10
2018-02-04T17:38:47.891Z,95.80
2018-02-04T17:41:15.425Z,95.90
2018-02-04T17:43:42.935Z,96.30
2018-02-04T17:46:10.478Z,96.30
2018-02-04T17:48:37.992Z,95.90
2018-02-04T17:51:05.567Z,96.30
2018-02-04T17:53:33.849Z,96.10
2018-02-04T17:56:01.378Z,96.10
2018-02-04T17:58:28.924Z,96.10
2018-02-04T18:00:56.444Z,96.00
2018-02-04T18:03:24.767Z,96.20
2018-02-04T18:05:52.271Z,96.20
2018-02-04T18:08:19.884Z,95.90
2018-02-04T18:10:48.176Z,96.10
2018-02-04T18:13:16.532Z,95.90
2018-02-04T18:15:44.123Z,95.90
2018-02-04T18:18:11.731Z,95.90
2018-02-04T18:20:39.277Z,96.00
2018-02-04T18:23:07.614Z,95.80
2018-02-04T18:25:35.137Z,95.80
2018-02-04T18:28:03.462Z,95.50
2018-02-04T18:30:31.025Z,95.40
2018-02-04T18:32:58.652Z,95.70
2018-02-04T18:35:27.023Z,96.00
2018-02-04T18:37:54.580Z,96.00
2018-02-04T18:40:22.164Z,95.70
2018-02-04T18:42:49.758Z,96.00
2018-02-04T18:45:17.305Z,96.20
2018-02-04T18:47:44.850Z,95.40
2018-02-04T18:50:12.374Z,95.50
2018-02-04T18:52:39.979Z,95.80
2018-02-04T18:55:08.492Z,95.60
2018-02-04T18:57:36.029Z,95.60
2018-02-04T19:00:04.408Z,96.00
2018-02-04T19:02:31.979Z,96.00
2018-02-04T19:04:59.502Z,95.80
2018-02-04T19:07:27.034Z,95.80
2018-02-04T19:09:55.406Z,95.90
2018-02-04T19:12:23.013Z,95.90
2018-02-04T19:14:50.574Z,95.90
2018-02-04T19:17:18.873Z,96.00
2018-02-04T19:19:47.184Z,95.90
2018-02-04T19:22:14.710Z,95.90
2018-02-04T19:24:42.258Z,95.40
2018-02-04T19:27:09.809Z,95.50
2018-02-04T19:29:37.436Z,95.80
2018-02-04T19:32:04.970Z,95.80
2018-02-04T19:34:32.586Z,95.70
2018-02-04T19:37:00.875Z,95.50
2018-02-04T19:39:29.193Z,95.80
2018-02-04T19:41:56.726Z,95.80
2018-02-04T19:44:24.291Z,95.60
2018-02-04T19:46:51.816Z,95.50
2018-02-04T19:49:19.442Z,95.60
2018-02-04T19:51:47.787Z,95.70
2018-02-04T19:54:15.393Z,95.70
2018-02-04T19:56:43.009Z,95.50
2018-02-04T19:59:11.321Z,95.70
2018-02-04T20:01:38.914Z,95.70
2018-02-04T20:04:06.471Z,95.50
2018-02-04T20:06:33.999Z,95.30
2018-02-04T20:09:02.332Z,95.50
2018-02-04T20:11:29.921Z,95.50
2018-02-04T20:13:57.462Z,95.30
2018-02-04T20:16:25.072Z,95.40
2018-02-04T20:18:52.691Z,95.20
2018-02-04T20:21:20.245Z,94.90
2018-02-04T20:23:47.778Z,95.20
2018-02-04T20:26:16.243Z,95.60
2018-02-04T20:28:43.874Z,95.60
2018-02-04T20:31:11.428Z,95.60
2018-02-04T20:33:50.804Z,95.70
2018-02-04T20:36:19.210Z,95.60
2018-02-04T20:38:47.575Z,95.50
2018-02-04T20:41:16.779Z,95.50
2018-02-04T20:43:44.320Z,95.40
2018-02-04T20:46:11.934Z,95.30
2018-02-04T20:48:40.595Z,95.20
2018-02-04T20:51:10.017Z,95.10
2018-02-04T20:53:37.698Z,95.10
2018-02-04T20:56:10.366Z,95.50
2018-02-04T20:58:38.970Z,95.50
2018-02-04T21:01:07.583Z,95.60
2018-02-04T21:03:35.833Z,95.30
2018-02-04T21:06:03.823Z,94.90
2018-02-04T21:08:32.045Z,95.10
2018-02-04T21:11:02.153Z,95.50
2018-02-04T21:13:30.608Z,95.50
2018-02-04T21:15:59.172Z,95.70
2018-02-04T21:18:29.476Z,95.60
2018-02-04T21:20:58.591Z,95.50
2018-02-04T21:23:27.755Z,95.40
2018-02-04T21:25:55.836Z,95.20
2018-02-04T21:28:25.220Z,95.30
2018-02-04T21:30:53.783Z,95.30
2018-02-04T21:33:22.394Z,94.70
2018-02-04T21:35:51.095Z,95.10
2018-02-04T21:38:20.344Z,95.20
2018-02-04T21:40:48.082Z,95.30
2018-02-04T21:43:15.638Z,95.30
2018-02-04T21:45:43.523Z,95.50
2018-02-04T21:48:12.542Z,95.30
2018-02-04T21:50:40.134Z,95.20
2018-02-04T21:53:07.674Z,95.00
2018-02-04T21:55:35.414Z,94.80
2018-02-04T21:58:03.088Z,94.90
2018-02-04T22:00:30.621Z,95.00
2018-02-04T22:02:58.181Z,94.70
2018-02-04T22:05:25.716Z,95.00
2018-02-04T22:07:53.272Z,94.80
2018-02-04T22:10:21.623Z,94.80
2018-02-04T22:12:49.233Z,94.80
2018-02-04T22:15:16.787Z,94.90
2018-02-04T22:17:44.383Z,94.80
2018-02-04T22:20:11.910Z,95.00
2018-02-04T22:22:40.262Z,95.30
2018-02-04T22:25:08.644Z,95.00
2018-02-04T22:27:36.241Z,95.00
2018-02-04T22:30:03.796Z,94.90
2018-02-04T22:32:32.122Z,94.80
2018-02-04T22:34:59.685Z,94.80
2018-02-04T22:37:27.277Z,95.00
2018-02-04T22:39:54.858Z,95.20
2018-02-04T22:42:22.491Z,95.30
2018-02-04T22:44:50.074Z,95.30
2018-02-04T22:47:17.630Z,95.10
2018-02-04T22:49:45.935Z,94.90
2018-02-04T22:52:13.497Z,94.90
2018-02-04T22:54:41.832Z,94.80
2018-02-04T22:57:09.405Z,94.70
2018-02-04T22:59:36.962Z,94.70
2018-02-04T23:02:04.518Z,94.90
2018-02-04T23:04:32.058Z,95.20
2018-02-04T23:07:00.391Z,95.20
2018-02-04T23:09:27.932Z,95.20
2018-02-04T23:11:56.268Z,95.20
2018-02-04T23:14:23.797Z,95.20
2018-02-04T23:19:33.217Z,95.30
2018-02-04T23:22:01.714Z,95.50
2018-02-04T23:24:33.437Z,95.40
2018-02-04T23:27:01.187Z,95.40
2018-02-04T23:29:29.663Z,95.40
2018-02-04T23:31:57.716Z,95.40
2018-02-04T23:34:25.617Z,95.60
2018-02-04T23:36:53.269Z,95.70
2018-02-04T23:39:20.922Z,95.60
2018-02-04T23:41:48.786Z,95.30
2018-02-04T23:44:17.611Z,95.90
2018-02-04T23:46:45.938Z,95.80
2018-02-04T23:49:13.627Z,96.10
2018-02-04T23:51:41.261Z,95.60
2018-02-04T23:54:09.588Z,95.60
2018-02-04T23:56:37.176Z,95.60
2018-02-04T23:59:09.719Z,95.50
